Time;durP1;ratioP1;P1;durP2;ratioP2;P2;SDS_P1;SDS_P2;PMS_P1;PMS_P2;Temp;Humidity;BMP_temperature;BMP_pressure;BME280_temperature;BME280_humidity;BME280_pressure;Samples;Min_cycle;Max_cycle;Signal;HPM_P1;HPM_P2
2023/05/13 00:01:15;;;;;;;10.00;7.30;;;16.00;68.40;;;;;;5088439;28;20590;-78
2023/05/13 00:04:06;;;;;;;11.98;7.22;;;16.10;68.60;;;;;;5082197;28;20239;-78
2023/05/13 00:06:56;;;;;;;11.20;7.57;;;16.00;68.70;;;;;;5066292;28;20289;-78
2023/05/13 00:09:45;;;;;;;13.30;7.30;;;16.10;68.90;;;;;;5062754;28;20224;-78
2023/05/13 00:12:33;;;;;;;11.00;7.60;;;16.00;68.90;;;;;;5094335;28;20598;-77
2023/05/13 00:15:22;;;;;;;17.75;8.30;;;15.90;68.50;;;;;;5069576;28;20238;-78
2023/05/13 00:18:11;;;;;;;10.60;7.25;;;15.80;69.30;;;;;;5077392;28;20224;-78
2023/05/13 00:21:00;;;;;;;12.60;7.82;;;15.80;71.00;;;;;;5081337;28;20249;-79
2023/05/13 00:23:50;;;;;;;12.73;8.00;;;15.70;69.40;;;;;;5069104;28;20219;-78
2023/05/13 00:26:39;;;;;;;13.32;7.85;;;15.90;70.30;;;;;;5066985;28;20732;-79
2023/05/13 00:29:28;;;;;;;14.68;8.07;;;15.90;70.40;;;;;;5075850;28;20232;-79
2023/05/13 00:32:17;;;;;;;11.75;8.02;;;15.90;70.40;;;;;;5086502;28;20822;-79
2023/05/13 00:35:06;;;;;;;14.13;8.18;;;15.90;70.30;;;;;;5065137;28;21274;-78
2023/05/13 00:37:55;;;;;;;11.93;8.20;;;15.90;71.30;;;;;;5067349;28;20235;-79
2023/05/13 00:40:47;;;;;;;11.18;8.02;;;15.90;71.40;;;;;;5089081;27;20246;-81
2023/05/13 00:43:36;;;;;;;12.60;7.60;;;16.00;72.00;;;;;;5081618;28;20617;-80
2023/05/13 00:46:25;;;;;;;12.60;7.70;;;15.90;73.40;;;;;;5074691;28;20226;-80
2023/05/13 00:49:14;;;;;;;13.98;7.85;;;15.90;73.80;;;;;;5074076;28;20277;-81
2023/05/13 00:52:03;;;;;;;12.10;7.80;;;15.80;74.20;;;;;;5098362;27;20254;-80
2023/05/13 00:54:52;;;;;;;13.57;8.68;;;15.80;75.80;;;;;;5074008;28;20231;-82
2023/05/13 00:57:42;;;;;;;17.08;8.45;;;15.70;79.00;;;;;;5094459;28;20222;-80
2023/05/13 01:00:36;;;;;;;12.35;7.70;;;15.90;83.50;;;;;;5099827;28;20270;-81
2023/05/13 01:03:33;;;;;;;14.25;7.80;;;15.80;83.20;;;;;;5079282;28;20238;-81
2023/05/13 01:06:33;;;;;;;13.02;8.25;;;15.80;84.50;;;;;;5095212;28;20223;-81
2023/05/13 01:09:28;;;;;;;11.93;8.30;;;15.80;86.10;;;;;;5099491;28;20234;-81
2023/05/13 01:12:21;;;;;;;14.30;7.90;;;15.80;85.30;;;;;;5088556;28;20220;-80
2023/05/13 01:15:16;;;;;;;11.93;8.15;;;15.80;86.70;;;;;;5109154;27;20230;-82
2023/05/13 01:18:09;;;;;;;15.75;8.45;;;15.80;86.60;;;;;;5100136;27;20314;-79
2023/05/13 01:21:01;;;;;;;12.07;7.80;;;15.80;86.00;;;;;;5097555;27;20219;-78
2023/05/13 01:23:51;;;;;;;14.18;8.25;;;15.70;86.10;;;;;;5086314;28;20315;-78
2023/05/13 01:26:40;;;;;;;13.75;7.97;;;15.70;86.00;;;;;;5089739;28;20219;-76
2023/05/13 01:29:31;;;;;;;15.55;8.80;;;15.70;84.90;;;;;;5095598;28;20606;-78
2023/05/13 01:32:22;;;;;;;11.77;8.30;;;15.70;85.70;;;;;;5090458;28;20295;-79
2023/05/13 01:35:12;;;;;;;12.43;8.30;;;15.70;85.70;;;;;;5081829;27;20218;-80
2023/05/13 01:38:06;;;;;;;12.00;8.23;;;15.60;85.20;;;;;;5081551;28;20223;-80
2023/05/13 01:40:57;;;;;;;12.20;8.52;;;15.60;85.10;;;;;;5084145;28;20227;-80
2023/05/13 01:43:45;;;;;;;13.25;8.25;;;15.60;85.90;;;;;;5102748;27;20227;-79
2023/05/13 01:46:34;;;;;;;12.68;8.25;;;15.60;86.30;;;;;;5104943;27;20724;-80
2023/05/13 01:49:24;;;;;;;15.10;8.60;;;15.50;86.20;;;;;;5092056;27;20230;-80
2023/05/13 01:52:13;;;;;;;13.55;8.95;;;15.40;86.10;;;;;;5104221;28;20230;-80
2023/05/13 01:55:02;;;;;;;15.25;9.40;;;15.40;87.40;;;;;;5088663;27;20230;-79
2023/05/13 01:57:53;;;;;;;16.20;9.52;;;15.40;87.60;;;;;;5089413;28;20288;-80
2023/05/13 02:00:42;;;;;;;15.52;9.55;;;15.30;87.20;;;;;;5095973;28;20385;-80
2023/05/13 02:03:32;;;;;;;15.82;9.77;;;15.20;87.10;;;;;;5098617;27;20254;-78
2023/05/13 02:06:21;;;;;;;13.00;9.52;;;15.10;87.50;;;;;;5102909;27;20295;-78
2023/05/13 02:09:10;;;;;;;17.02;10.48;;;15.00;88.30;;;;;;5083497;28;20220;-78
2023/05/13 02:12:00;;;;;;;15.93;10.13;;;15.10;88.50;;;;;;5086486;28;20223;-77
2023/05/13 02:14:51;;;;;;;15.93;10.20;;;15.00;88.30;;;;;;5078436;28;20243;-78
2023/05/13 02:17:39;;;;;;;20.05;10.40;;;15.00;89.20;;;;;;5099530;28;20214;-75
2023/05/13 02:20:28;;;;;;;17.67;9.88;;;14.90;88.30;;;;;;5072647;27;20230;-81
2023/05/13 02:23:17;;;;;;;15.13;10.30;;;14.80;88.70;;;;;;5065269;28;20597;-81
2023/05/13 02:26:06;;;;;;;17.55;9.88;;;14.90;88.90;;;;;;5072641;28;20267;-80
2023/05/13 02:28:55;;;;;;;18.20;9.55;;;14.90;89.30;;;;;;5093010;28;20263;-81
2023/05/13 02:31:45;;;;;;;16.88;10.15;;;14.80;89.90;;;;;;5081796;28;20232;-80
2023/05/13 02:34:34;;;;;;;15.23;9.98;;;14.90;89.30;;;;;;5075776;28;20239;-81
2023/05/13 02:37:23;;;;;;;17.05;10.45;;;15.00;89.80;;;;;;5094023;28;20222;-81
2023/05/13 02:40:20;;;;;;;15.70;9.30;;;15.00;89.80;;;;;;5092169;28;20258;-77
2023/05/13 02:43:10;;;;;;;18.58;10.52;;;15.10;90.20;;;;;;5083001;27;20223;-77
2023/05/13 02:46:15;;;;;;;16.90;10.15;;;15.10;90.10;;;;;;5102484;28;20210;-77
2023/05/13 02:49:07;;;;;;;19.80;10.18;;;15.10;90.60;;;;;;5105598;27;20236;-79
2023/05/13 02:51:56;;;;;;;14.45;9.93;;;15.10;90.20;;;;;;5092759;28;20247;-81
2023/05/13 02:54:52;;;;;;;16.63;10.10;;;14.90;90.00;;;;;;5093339;28;20211;-77
2023/05/13 02:57:43;;;;;;;16.42;9.75;;;14.90;90.80;;;;;;5091367;28;20223;-77
2023/05/13 03:00:33;;;;;;;17.67;10.32;;;15.10;91.80;;;;;;5080933;27;20226;-79
2023/05/13 03:03:22;;;;;;;15.05;10.43;;;14.60;91.30;;;;;;5081655;28;20993;-76
2023/05/13 03:06:12;;;;;;;14.13;9.80;;;14.80;92.10;;;;;;5089452;28;20233;-76
2023/05/13 03:09:01;;;;;;;16.20;10.13;;;15.00;92.30;;;;;;5101186;28;20234;-76
2023/05/13 03:11:53;;;;;;;16.98;10.60;;;15.00;92.00;;;;;;5088803;28;20731;-75
2023/05/13 03:14:43;;;;;;;17.20;11.02;;;14.90;91.80;;;;;;5094587;28;20295;-76
2023/05/13 03:17:32;;;;;;;16.05;10.63;;;15.00;92.20;;;;;;5097136;28;20223;-76
2023/05/13 03:20:21;;;;;;;14.77;10.85;;;15.00;92.00;;;;;;5095034;27;20286;-75
2023/05/13 03:23:11;;;;;;;16.02;10.43;;;15.10;91.80;;;;;;5087340;28;20238;-74
2023/05/13 03:26:02;;;;;;;16.23;11.52;;;15.10;91.10;;;;;;5091728;28;20226;-75
2023/05/13 03:28:51;;;;;;;15.27;11.07;;;15.00;91.40;;;;;;5091482;28;20218;-74
2023/05/13 03:31:41;;;;;;;16.40;10.68;;;15.00;92.00;;;;;;5100977;28;20241;-73
2023/05/13 03:34:35;;;;;;;15.43;11.25;;;15.00;91.40;;;;;;5107476;28;20598;-75
2023/05/13 03:37:25;;;;;;;23.25;11.57;;;14.80;91.80;;;;;;5080248;28;20689;-81
2023/05/13 03:40:15;;;;;;;20.15;11.98;;;15.00;90.90;;;;;;5100121;28;20279;-82
2023/05/13 03:43:04;;;;;;;21.92;12.35;;;14.90;91.80;;;;;;5094175;28;21066;-82
2023/05/13 03:45:54;;;;;;;16.80;11.38;;;15.00;91.20;;;;;;5082910;28;21002;-81
2023/05/13 03:48:45;;;;;;;20.13;12.70;;;15.00;92.00;;;;;;5085473;28;20309;-82
2023/05/13 03:51:34;;;;;;;21.05;12.27;;;15.00;91.40;;;;;;5102068;28;20226;-84
2023/05/13 03:54:23;;;;;;;24.42;12.02;;;15.00;91.00;;;;;;5103212;28;20223;-83
2023/05/13 03:57:13;;;;;;;15.38;11.02;;;15.00;91.30;;;;;;5110607;27;20218;-83
2023/05/13 04:00:03;;;;;;;23.33;12.88;;;14.90;91.40;;;;;;5081756;27;20225;-78
2023/05/13 04:03:02;;;;;;;20.52;12.07;;;14.90;91.10;;;;;;5107762;27;20229;-79
2023/05/13 04:05:52;;;;;;;20.23;11.95;;;14.90;91.90;;;;;;5090771;28;20718;-78
2023/05/13 04:08:42;;;;;;;17.90;11.82;;;14.90;92.40;;;;;;5087778;27;20284;-77
2023/05/13 04:11:31;;;;;;;21.23;12.30;;;14.90;92.30;;;;;;5114944;27;20230;-78
2023/05/13 04:14:21;;;;;;;18.13;12.10;;;14.90;92.70;;;;;;5116294;27;20765;-77
2023/05/13 04:17:10;;;;;;;23.75;12.55;;;15.30;92.30;;;;;;5103682;27;20219;-78
2023/05/13 04:19:59;;;;;;;22.23;12.02;;;15.40;92.30;;;;;;5110563;27;20225;-77
2023/05/13 04:22:48;;;;;;;20.50;12.77;;;15.40;92.10;;;;;;5090953;28;20214;-76
2023/05/13 04:25:37;;;;;;;20.27;13.02;;;15.50;92.30;;;;;;5074180;27;20226;-77
2023/05/13 04:28:26;;;;;;;18.83;12.52;;;15.60;91.90;;;;;;5100838;27;20321;-78
2023/05/13 04:31:17;;;;;;;21.30;14.00;;;15.70;91.70;;;;;;5100549;27;20249;-78
2023/05/13 04:34:06;;;;;;;20.65;13.85;;;15.90;92.10;;;;;;5104077;27;20289;-80
2023/05/13 04:36:55;;;;;;;17.70;12.82;;;15.90;92.60;;;;;;5083563;28;20824;-79
2023/05/13 04:39:46;;;;;;;18.48;12.98;;;15.80;92.50;;;;;;5104326;27;20317;-79
2023/05/13 04:42:36;;;;;;;17.63;12.30;;;15.70;91.90;;;;;;5098783;27;20360;-80
2023/05/13 04:45:25;;;;;;;22.73;12.88;;;15.50;91.80;;;;;;5093555;27;20260;-77
2023/05/13 04:48:17;;;;;;;19.42;12.57;;;15.50;93.40;;;;;;5100707;27;20535;-77
2023/05/13 04:51:06;;;;;;;17.92;13.15;;;15.70;92.50;;;;;;5102555;27;20597;-76
2023/05/13 04:53:55;;;;;;;17.42;12.45;;;15.50;91.00;;;;;;5100861;28;20227;-78
2023/05/13 04:56:44;;;;;;;19.95;12.18;;;15.70;93.40;;;;;;5093629;27;20237;-78
2023/05/13 04:59:33;;;;;;;21.10;13.23;;;15.70;92.50;;;;;;5103025;27;20218;-77
2023/05/13 05:02:22;;;;;;;22.73;13.10;;;15.60;93.30;;;;;;5102593;27;20218;-77
2023/05/13 05:05:13;;;;;;;18.05;12.50;;;15.50;91.70;;;;;;5086211;27;20227;-77
2023/05/13 05:08:06;;;;;;;21.90;12.07;;;15.80;93.00;;;;;;5091990;27;20248;-76
2023/05/13 05:10:55;;;;;;;16.73;11.70;;;15.10;93.00;;;;;;5107242;27;20217;-78
2023/05/13 05:13:44;;;;;;;16.30;11.57;;;15.20;93.70;;;;;;5107259;27;20284;-80
2023/05/13 05:16:35;;;;;;;17.67;10.57;;;15.90;93.00;;;;;;5081007;28;20223;-80
2023/05/13 05:19:25;;;;;;;15.07;10.82;;;;;;;;;;5091888;27;20441;-79
2023/05/13 05:22:17;;;;;;;14.65;10.75;;;16.50;90.80;;;;;;5073748;28;20742;-78
2023/05/13 05:25:07;;;;;;;15.00;10.65;;;16.80;92.30;;;;;;5074986;28;20249;-82
2023/05/13 05:27:56;;;;;;;18.50;10.50;;;16.60;76.40;;;;;;5106754;27;20264;-87
2023/05/13 05:30:46;;;;;;;13.07;9.30;;;16.80;78.20;;;;;;5086274;28;20230;-80
2023/05/13 05:33:41;;;;;;;14.00;9.63;;;16.90;75.50;;;;;;5076768;28;20215;-76
2023/05/13 05:36:30;;;;;;;11.90;9.23;;;17.10;74.00;;;;;;5067244;28;20326;-79
2023/05/13 05:39:21;;;;;;;14.68;9.55;;;16.90;75.50;;;;;;5060126;28;20346;-76
2023/05/13 05:42:10;;;;;;;16.48;9.70;;;16.70;74.90;;;;;;5063174;28;20220;-76
2023/05/13 05:45:00;;;;;;;14.25;9.23;;;16.80;74.90;;;;;;5085932;28;20923;-77
2023/05/13 05:47:49;;;;;;;15.98;9.43;;;17.10;74.80;;;;;;5089531;28;20246;-76
2023/05/13 05:50:38;;;;;;;17.10;9.65;;;17.30;74.10;;;;;;5068010;28;20223;-76
2023/05/13 05:53:29;;;;;;;13.60;9.52;;;17.70;74.10;;;;;;5073929;28;20227;-82
2023/05/13 05:56:20;;;;;;;16.30;9.10;;;18.90;72.90;;;;;;5077909;28;20226;-79
2023/05/13 05:59:10;;;;;;;15.85;8.48;;;21.20;66.90;;;;;;5080067;28;20371;-87
2023/05/13 06:01:59;;;;;;;17.65;8.45;;;22.30;61.60;;;;;;5083435;28;20212;-85
2023/05/13 06:04:48;;;;;;;19.95;8.65;;;23.30;65.00;;;;;;5092676;28;20219;-88
2023/05/13 06:07:37;;;;;;;22.08;8.27;;;22.90;63.30;;;;;;5080809;28;20642;-86
2023/05/13 06:10:26;;;;;;;16.08;8.10;;;22.40;63.60;;;;;;5084246;28;20707;-81
2023/05/13 06:13:16;;;;;;;13.52;7.88;;;21.70;67.90;;;;;;5065322;28;20546;-82
2023/05/13 06:16:06;;;;;;;16.50;7.95;;;20.70;64.30;;;;;;5076853;28;20722;-77
2023/05/13 06:18:55;;;;;;;15.00;8.48;;;19.80;65.10;;;;;;5063996;28;20753;-78
2023/05/13 06:21:47;;;;;;;12.80;7.70;;;19.60;67.80;;;;;;5074754;28;20230;-80
2023/05/13 06:24:37;;;;;;;13.20;7.60;;;19.50;67.50;;;;;;5069482;28;20690;-85
2023/05/13 06:27:27;;;;;;;13.00;7.15;;;19.50;67.90;;;;;;5074601;28;20623;-84
2023/05/13 06:30:17;;;;;;;17.00;7.72;;;19.60;68.80;;;;;;5090519;28;20223;-77
2023/05/13 06:33:09;;;;;;;13.02;6.80;;;20.60;67.00;;;;;;5085974;28;20690;-77
2023/05/13 06:35:58;;;;;;;10.70;7.13;;;21.30;63.70;;;;;;5098221;28;20319;-83
2023/05/13 06:38:48;;;;;;;9.35;6.15;;;20.80;64.80;;;;;;5097172;28;20215;-78
2023/05/13 06:41:36;;;;;;;12.55;6.47;;;20.50;64.00;;;;;;5086147;27;20221;-79
2023/05/13 06:44:30;;;;;;;20.85;16.05;;;20.50;65.10;;;;;;5100980;28;20222;-83
2023/05/13 06:47:20;;;;;;;12.25;5.80;;;20.30;63.20;;;;;;5094041;28;20330;-77
2023/05/13 06:50:11;;;;;;;9.88;5.45;;;20.10;63.50;;;;;;5085798;28;20801;-76
2023/05/13 06:53:00;;;;;;;10.10;5.18;;;20.20;63.90;;;;;;5097953;27;20258;-79
2023/05/13 06:55:50;;;;;;;7.88;5.13;;;20.80;60.80;;;;;;5096957;27;20218;-80
2023/05/13 06:58:39;;;;;;;9.13;5.43;;;20.90;62.20;;;;;;5100861;28;20359;-85
2023/05/13 07:01:28;;;;;;;11.10;5.28;;;20.70;62.30;;;;;;5091402;28;20590;-79
2023/05/13 07:04:18;;;;;;;7.68;4.85;;;21.10;62.90;;;;;;5095348;28;20701;-77
2023/05/13 07:07:07;;;;;;;9.20;4.78;;;21.10;62.40;;;;;;5099499;28;20245;-75
2023/05/13 07:09:56;;;;;;;7.97;4.93;;;20.90;60.20;;;;;;5100102;27;20248;-76
2023/05/13 07:12:44;;;;;;;5.55;4.20;;;21.00;63.50;;;;;;5106614;27;20738;-75
2023/05/13 07:15:33;;;;;;;9.90;4.45;;;21.40;62.90;;;;;;5087592;28;20222;-77
2023/05/13 07:18:22;;;;;;;12.38;4.60;;;21.40;60.10;;;;;;5102628;28;20227;-79
2023/05/13 07:21:13;;;;;;;9.10;4.22;;;22.00;61.20;;;;;;5101428;28;20219;-74
2023/05/13 07:24:04;;;;;;;10.38;4.35;;;22.20;60.50;;;;;;5107930;28;20245;-84
2023/05/13 07:26:53;;;;;;;4.90;4.40;;;22.80;58.50;;;;;;5094298;28;20717;-74
2023/05/13 07:29:41;;;;;;;8.50;3.80;;;23.10;59.50;;;;;;5092006;28;20629;-74
2023/05/13 07:32:31;;;;;;;5.45;3.90;;;23.30;62.80;;;;;;5095379;28;20222;-74
2023/05/13 07:35:19;;;;;;;6.07;4.05;;;23.70;58.40;;;;;;5114350;28;20272;-75
2023/05/13 07:38:10;;;;;;;11.20;3.83;;;23.60;56.70;;;;;;5093157;28;20227;-73
2023/05/13 07:41:00;;;;;;;9.05;4.00;;;23.60;54.60;;;;;;5089667;28;20341;-72
2023/05/13 07:43:49;;;;;;;6.60;4.40;;;23.90;54.80;;;;;;5099418;28;20209;-73
2023/05/13 07:46:37;;;;;;;8.85;4.78;;;23.90;56.60;;;;;;5100416;28;20237;-72
2023/05/13 07:49:26;;;;;;;12.30;4.82;;;23.60;56.20;;;;;;5076269;28;20249;-72
2023/05/13 07:52:15;;;;;;;10.13;4.85;;;24.30;55.20;;;;;;5095692;28;20226;-74
2023/05/13 07:55:06;;;;;;;8.55;4.80;;;24.70;53.30;;;;;;5096896;28;20314;-77
2023/05/13 07:57:55;;;;;;;11.93;5.00;;;25.20;55.30;;;;;;5079117;28;20542;-74
2023/05/13 08:00:56;;;;;;;21.48;5.63;;;25.70;54.00;;;;;;5092770;28;20223;-84
2023/05/13 08:03:45;;;;;;;11.13;4.30;;;25.90;54.80;;;;;;5095506;28;20718;-81
2023/05/13 08:06:34;;;;;;;10.50;4.97;;;26.00;53.10;;;;;;5074451;28;20243;-81
2023/05/13 08:09:23;;;;;;;13.13;4.57;;;26.30;53.40;;;;;;5097839;28;20226;-79
2023/05/13 08:12:13;;;;;;;5.55;4.07;;;26.20;53.80;;;;;;5079222;28;20298;-80
2023/05/13 08:15:03;;;;;;;7.10;4.45;;;26.70;54.20;;;;;;5073269;28;20917;-79
2023/05/13 08:17:53;;;;;;;9.38;4.07;;;27.00;53.50;;;;;;5090353;28;20226;-87
2023/05/13 08:20:42;;;;;;;4.95;3.58;;;27.40;53.00;;;;;;5092853;28;20226;-80
2023/05/13 08:23:32;;;;;;;15.57;3.92;;;27.70;53.40;;;;;;5097160;28;20223;-88
2023/05/13 08:26:33;;;;;;;5.57;3.28;;;27.60;52.80;;;;;;5088768;28;20298;-83
2023/05/13 08:29:23;;;;;;;5.45;3.42;;;27.30;53.20;;;;;;5087786;28;20240;-79
2023/05/13 08:32:12;;;;;;;5.35;3.47;;;27.30;51.80;;;;;;5079744;28;20246;-79
2023/05/13 08:35:01;;;;;;;6.97;3.38;;;27.90;51.60;;;;;;5094300;28;20344;-86
2023/05/13 08:37:50;;;;;;;6.65;3.72;;;28.10;51.10;;;;;;5081553;28;20227;-73
2023/05/13 08:40:42;;;;;;;7.43;3.55;;;27.80;51.60;;;;;;5096118;27;20646;-73
2023/05/13 08:43:33;;;;;;;4.95;2.80;;;28.30;51.30;;;;;;5095996;28;20293;-73
2023/05/13 08:46:25;;;;;;;3.75;3.00;;;28.20;52.00;;;;;;5092275;28;20222;-73
2023/05/13 08:49:14;;;;;;;4.18;2.97;;;28.40;51.00;;;;;;5097377;27;20226;-73
2023/05/13 08:52:03;;;;;;;3.75;2.88;;;28.30;49.40;;;;;;5071807;28;20318;-74
2023/05/13 08:54:52;;;;;;;6.82;2.95;;;28.20;48.90;;;;;;5090173;28;20721;-74
2023/05/13 08:57:41;;;;;;;3.85;2.65;;;27.60;48.30;;;;;;5077628;28;20219;-72
2023/05/13 09:00:30;;;;;;;2.90;2.60;;;26.50;50.70;;;;;;5096422;28;20646;-82
2023/05/13 09:03:21;;;;;;;4.65;2.70;;;25.40;50.60;;;;;;5090236;27;20279;-80
2023/05/13 09:06:11;;;;;;;3.75;2.70;;;27.10;50.50;;;;;;5095334;27;20313;-72
2023/05/13 09:09:04;;;;;;;4.18;2.63;;;27.40;49.60;;;;;;5094136;27;20238;-76
2023/05/13 09:11:53;;;;;;;4.22;2.47;;;28.10;49.90;;;;;;5094833;27;20225;-74
2023/05/13 09:14:42;;;;;;;4.00;2.75;;;28.60;49.40;;;;;;5094313;28;20588;-71
2023/05/13 09:17:31;;;;;;;3.15;2.53;;;28.30;45.60;;;;;;5101214;27;20333;-75
2023/05/13 09:20:24;;;;;;;4.88;2.50;;;27.40;47.60;;;;;;5093552;28;20624;-70
2023/05/13 09:23:14;;;;;;;3.50;2.70;;;26.10;46.90;;;;;;5078047;28;20223;-69
2023/05/13 09:26:03;;;;;;;7.05;2.65;;;25.60;48.60;;;;;;5092213;27;20214;-71
2023/05/13 09:29:16;;;;;;;7.18;3.00;;;27.10;48.30;;;;;;5077079;27;21150;-70
2023/05/13 09:32:09;;;;;;;3.78;2.40;;;28.20;48.10;;;;;;5093267;28;20278;-69
2023/05/13 09:35:10;;;;;;;5.82;2.60;;;28.70;47.00;;;;;;5078650;28;20230;-71
2023/05/13 09:38:00;;;;;;;2.88;2.20;;;30.00;50.00;;;;;;5089370;27;20247;-70
2023/05/13 09:40:53;;;;;;;5.07;2.65;;;;;;;;;;5092379;28;20376;-70
2023/05/13 09:43:42;;;;;;;4.80;2.50;;;31.10;62.40;;;;;;5092322;27;20223;-70
2023/05/13 09:46:33;;;;;;;3.50;2.80;;;31.50;45.20;;;;;;5099638;27;20235;-70
2023/05/13 09:49:26;;;;;;;4.60;3.00;;;32.40;45.50;;;;;;5086515;27;20222;-70
2023/05/13 09:52:17;;;;;;;3.40;2.85;;;32.30;43.90;;;;;;5105892;27;20302;-72
2023/05/13 09:55:09;;;;;;;2.90;2.70;;;31.90;44.40;;;;;;5101054;27;20312;-71
2023/05/13 09:57:58;;;;;;;7.00;2.53;;;32.50;44.40;;;;;;5097785;28;20961;-70
2023/05/13 10:00:48;;;;;;;5.15;2.58;;;33.80;44.50;;;;;;5090151;28;20378;-71
2023/05/13 10:03:37;;;;;;;6.18;2.97;;;32.10;44.30;;;;;;5103982;27;20645;-71
2023/05/13 10:06:30;;;;;;;6.32;3.42;;;29.80;47.50;;;;;;5100020;27;20340;-71
2023/05/13 10:09:21;;;;;;;4.35;2.80;;;27.70;47.00;;;;;;5096123;28;20358;-71
2023/05/13 10:12:14;;;;;;;8.32;3.00;;;27.00;47.60;;;;;;5102668;27;20240;-71
2023/05/13 10:15:06;;;;;;;5.82;2.90;;;26.60;48.80;;;;;;5078424;28;20675;-71
2023/05/13 10:17:56;;;;;;;4.43;3.00;;;26.20;59.20;;;;;;5098403;28;20219;-71
2023/05/13 10:20:45;;;;;;;4.25;3.33;;;25.20;51.50;;;;;;5099640;28;20238;-71
2023/05/13 10:23:34;;;;;;;5.30;3.10;;;26.00;52.60;;;;;;5094202;28;20223;-71
2023/05/13 10:26:23;;;;;;;5.75;3.40;;;29.70;47.60;;;;;;5102605;27;20253;-72
2023/05/13 10:29:14;;;;;;;7.63;3.30;;;28.80;44.10;;;;;;5101424;28;20234;-70
2023/05/13 10:32:04;;;;;;;6.13;3.78;;;30.70;42.70;;;;;;5098604;27;20215;-71
2023/05/13 10:34:58;;;;;;;4.18;3.05;;;31.90;43.70;;;;;;5086896;28;20710;-71
2023/05/13 10:37:59;;;;;;;4.38;3.40;;;32.50;42.70;;;;;;5081683;28;20215;-71
2023/05/13 10:41:01;;;;;;;5.13;2.97;;;33.00;42.00;;;;;;5094211;27;20228;-70
2023/05/13 10:43:57;;;;;;;3.47;2.92;;;30.60;42.20;;;;;;5083164;27;20788;-72
2023/05/13 10:46:49;;;;;;;3.22;2.90;;;28.00;44.10;;;;;;5095935;27;20233;-71
2023/05/13 10:49:38;;;;;;;3.83;3.10;;;26.70;44.20;;;;;;5098154;28;20226;-68
2023/05/13 10:52:41;;;;;;;6.78;2.80;;;27.10;43.90;;;;;;5087413;28;20217;-71
2023/05/13 10:55:31;;;;;;;7.82;2.95;;;28.90;41.30;;;;;;5096339;28;20827;-72
2023/05/13 10:58:24;;;;;;;4.80;2.75;;;28.60;40.30;;;;;;5092586;28;20226;-71
2023/05/13 11:01:15;;;;;;;5.20;2.70;;;31.40;39.60;;;;;;5077097;28;20222;-71
2023/05/13 11:04:06;;;;;;;6.65;3.20;;;29.40;42.30;;;;;;5093241;28;20773;-71
2023/05/13 11:06:55;;;;;;;5.38;2.85;;;27.90;43.50;;;;;;5076871;28;20230;-71
2023/05/13 11:09:50;;;;;;;7.15;2.90;;;27.10;43.60;;;;;;5085743;28;20218;-71
2023/05/13 11:12:39;;;;;;;5.60;3.00;;;25.80;46.50;;;;;;5099795;28;20215;-72
2023/05/13 11:15:44;;;;;;;6.18;2.83;;;25.50;47.60;;;;;;5079522;28;20246;-71
2023/05/13 11:18:35;;;;;;;5.63;2.97;;;;;;;;;;5085604;28;20272;-71
2023/05/13 11:21:32;;;;;;;3.75;2.65;;;24.20;45.00;;;;;;5069959;28;20257;-71
2023/05/13 11:24:22;;;;;;;3.85;2.70;;;24.10;45.60;;;;;;5080103;28;20678;-71
2023/05/13 11:27:16;;;;;;;7.45;2.83;;;24.50;46.50;;;;;;5076199;28;20353;-71
2023/05/13 11:30:08;;;;;;;3.67;2.60;;;26.50;46.60;;;;;;5078163;28;20741;-71
2023/05/13 11:32:58;;;;;;;4.32;3.20;;;33.30;42.20;;;;;;5096747;28;20702;-71
2023/05/13 11:35:54;;;;;;;5.95;2.75;;;36.90;37.10;;;;;;5090860;28;20571;-71
2023/05/13 11:38:44;;;;;;;4.63;2.80;;;30.60;37.40;;;;;;5099223;28;20302;-75
2023/05/13 11:41:33;;;;;;;4.25;2.70;;;28.90;40.50;;;;;;5077262;28;20214;-72
2023/05/13 11:44:23;;;;;;;6.35;2.78;;;;;;;;;;5084396;28;20710;-72
2023/05/13 11:47:12;;;;;;;5.53;2.70;;;26.20;42.80;;;;;;5076669;28;20606;-72
2023/05/13 11:50:02;;;;;;;3.85;2.70;;;25.10;44.40;;;;;;5076538;28;20237;-71
2023/05/13 11:52:52;;;;;;;4.18;2.92;;;24.50;45.10;;;;;;5070674;28;20230;-71
2023/05/13 11:55:42;;;;;;;4.03;2.88;;;24.30;46.10;;;;;;5091810;28;20246;-71
2023/05/13 11:58:31;;;;;;;3.88;2.80;;;24.30;46.30;;;;;;5080524;28;20234;-72
2023/05/13 12:01:21;;;;;;;4.53;2.83;;;24.60;46.70;;;;;;5089622;28;20218;-72
2023/05/13 12:04:10;;;;;;;3.53;2.60;;;23.80;46.30;;;;;;5094472;28;20234;-72
2023/05/13 12:06:59;;;;;;;3.83;2.78;;;24.00;48.40;;;;;;5094002;28;20219;-73
2023/05/13 12:09:48;;;;;;;7.03;2.63;;;27.10;45.70;;;;;;5082375;28;20226;-72
2023/05/13 12:12:39;;;;;;;5.93;3.05;;;33.90;40.60;;;;;;5070263;28;20238;-72
2023/05/13 12:15:30;;;;;;;5.25;2.70;;;32.90;37.10;;;;;;5059048;28;20253;-71
2023/05/13 12:18:19;;;;;;;7.38;2.80;;;38.60;36.70;;;;;;5057194;28;20220;-71
2023/05/13 12:21:16;;;;;;;5.80;2.63;;;39.40;33.20;;;;;;5087526;28;20218;-72
2023/05/13 12:24:17;;;;;;;6.55;2.50;;;42.50;32.50;;;;;;5092037;28;20283;-72
2023/05/13 12:27:07;;;;;;;5.95;2.53;;;43.30;30.50;;;;;;5102453;28;20232;-72
2023/05/13 12:30:03;;;;;;;3.83;2.40;;;42.30;29.40;;;;;;5104896;28;20488;-72
2023/05/13 12:32:52;;;;;;;4.65;2.30;;;35.60;31.60;;;;;;5088125;28;20454;-73
2023/05/13 12:35:41;;;;;;;5.53;2.42;;;33.30;34.50;;;;;;5100208;28;20697;-72
2023/05/13 12:38:31;;;;;;;5.93;2.63;;;31.30;36.70;;;;;;5108613;27;20742;-72
2023/05/13 12:41:19;;;;;;;5.20;2.63;;;29.30;37.50;;;;;;5098039;27;20296;-72
2023/05/13 12:44:10;;;;;;;3.58;2.35;;;28.60;40.50;;;;;;5104120;28;20570;-72
2023/05/13 12:47:01;;;;;;;5.80;2.60;;;27.00;40.30;;;;;;5104200;28;20217;-73
2023/05/13 12:49:57;;;;;;;6.80;2.65;;;26.60;41.80;;;;;;5080655;28;20593;-73
2023/05/13 12:52:45;;;;;;;4.30;2.60;;;26.40;42.60;;;;;;5106379;28;20611;-72
2023/05/13 12:55:38;;;;;;;4.60;2.78;;;26.20;42.40;;;;;;5090800;28;20297;-72
2023/05/13 12:58:28;;;;;;;2.90;2.60;;;25.90;42.70;;;;;;5106542;28;20225;-72
2023/05/13 13:01:17;;;;;;;7.55;2.30;;;25.40;42.90;;;;;;5103441;28;20685;-73
2023/05/13 13:04:07;;;;;;;7.25;2.78;;;25.20;44.70;;;;;;5098840;28;20299;-72
2023/05/13 13:06:56;;;;;;;3.80;2.67;;;25.00;44.60;;;;;;5105308;28;20226;-73
2023/05/13 13:09:46;;;;;;;6.25;2.70;;;24.90;44.80;;;;;;5102603;28;20226;-72
2023/05/13 13:12:34;;;;;;;7.55;2.53;;;24.80;45.50;;;;;;5099108;28;20590;-72
2023/05/13 13:15:23;;;;;;;4.60;2.30;;;24.90;45.50;;;;;;5103559;28;20238;-71
2023/05/13 13:18:12;;;;;;;4.32;2.40;;;24.80;45.20;;;;;;5079686;28;20250;-72
2023/05/13 13:21:04;;;;;;;3.45;2.60;;;24.90;44.90;;;;;;5080814;28;20214;-72
2023/05/13 13:23:52;;;;;;;5.55;2.55;;;24.70;44.70;;;;;;5094494;28;20219;-72
2023/05/13 13:26:41;;;;;;;4.80;2.50;;;24.40;45.60;;;;;;5084473;28;20309;-71
2023/05/13 13:29:30;;;;;;;5.03;2.15;;;24.20;45.50;;;;;;5105823;28;20250;-71
2023/05/13 13:32:19;;;;;;;4.97;2.35;;;23.90;45.60;;;;;;5091019;28;20313;-72
2023/05/13 13:35:08;;;;;;;6.30;2.53;;;23.60;47.00;;;;;;5102444;28;20224;-72
2023/05/13 13:37:58;;;;;;;4.50;2.78;;;23.70;46.90;;;;;;5103926;28;20215;-74
2023/05/13 13:40:47;;;;;;;5.00;2.42;;;23.60;46.70;;;;;;5099737;28;20761;-72
2023/05/13 13:43:36;;;;;;;5.88;2.65;;;23.50;46.70;;;;;;5098899;28;20317;-72
2023/05/13 13:46:24;;;;;;;4.00;2.70;;;23.70;47.40;;;;;;5084480;28;20621;-72
2023/05/13 13:49:18;;;;;;;5.90;2.60;;;23.60;47.70;;;;;;5079207;28;20314;-71
2023/05/13 13:52:11;;;;;;;3.97;2.40;;;23.50;46.90;;;;;;5063989;28;20239;-71
2023/05/13 13:55:02;;;;;;;2.90;2.60;;;23.90;48.50;;;;;;5086580;28;20223;-72
2023/05/13 13:57:51;;;;;;;4.05;2.60;;;23.70;47.60;;;;;;5085166;28;20246;-72
2023/05/13 14:00:39;;;;;;;4.68;3.22;;;23.80;48.00;;;;;;5098417;28;20231;-73
2023/05/13 14:03:28;;;;;;;5.65;3.03;;;23.90;47.60;;;;;;5086920;28;20575;-73
2023/05/13 14:06:17;;;;;;;3.58;2.28;;;24.10;48.00;;;;;;5082447;28;20211;-73
2023/05/13 14:09:06;;;;;;;7.00;2.80;;;23.80;47.10;;;;;;5084990;28;20302;-74
2023/05/13 14:11:56;;;;;;;4.20;2.22;;;23.90;48.30;;;;;;5089259;28;20278;-72
2023/05/13 14:14:45;;;;;;;3.95;2.67;;;23.80;46.30;;;;;;5077272;28;20235;-72
2023/05/13 14:17:34;;;;;;;4.07;2.50;;;23.90;46.80;;;;;;5096736;28;20222;-73
2023/05/13 14:20:23;;;;;;;6.93;2.42;;;23.80;45.60;;;;;;5093113;28;20234;-73
2023/05/13 14:23:12;;;;;;;2.42;2.22;;;23.50;48.20;;;;;;5092575;28;20215;-73
2023/05/13 14:26:01;;;;;;;5.00;2.08;;;23.50;49.60;;;;;;5095885;28;21674;-74
2023/05/13 14:28:51;;;;;;;5.15;2.10;;;23.10;49.10;;;;;;5089068;28;20687;-74
2023/05/13 14:31:40;;;;;;;3.65;2.15;;;23.00;49.90;;;;;;5101242;28;20230;-77
2023/05/13 14:34:29;;;;;;;5.97;2.08;;;22.80;49.90;;;;;;5095997;28;20226;-73
2023/05/13 14:37:19;;;;;;;3.40;2.10;;;22.70;50.30;;;;;;5085788;28;20219;-74
2023/05/13 14:40:09;;;;;;;3.10;2.03;;;22.60;50.40;;;;;;5085373;28;20218;-73